sensor_id;sensor_type;location;lat;lon;timestamp;temperature;humidity
11532;DHT22;5822;51.000;5.874;2022-07-29T00:02:11;20.50;99.90
11532;DHT22;5822;51.000;5.874;2022-07-29T00:04:37;20.50;99.90
11532;DHT22;5822;51.000;5.874;2022-07-29T00:07:03;20.50;99.90
11532;DHT22;5822;51.000;5.874;2022-07-29T00:09:29;20.50;99.90
11532;DHT22;5822;51.000;5.874;2022-07-29T00:11:58;20.60;99.90
11532;DHT22;5822;51.000;5.874;2022-07-29T00:14:24;20.60;99.90
11532;DHT22;5822;51.000;5.874;2022-07-29T00:16:50;20.60;99.90
11532;DHT22;5822;51.000;5.874;2022-07-29T00:19:16;20.60;99.90
11532;DHT22;5822;51.000;5.874;2022-07-29T00:21:41;20.60;99.90
11532;DHT22;5822;51.000;5.874;2022-07-29T00:24:07;20.60;99.90
11532;DHT22;5822;51.000;5.874;2022-07-29T00:26:33;20.50;99.90
11532;DHT22;5822;51.000;5.874;2022-07-29T00:28:59;20.60;99.90
11532;DHT22;5822;51.000;5.874;2022-07-29T00:31:25;20.50;99.90
11532;DHT22;5822;51.000;5.874;2022-07-29T00:33:51;20.40;99.90
11532;DHT22;5822;51.000;5.874;2022-07-29T00:36:17;20.30;99.90
11532;DHT22;5822;51.000;5.874;2022-07-29T00:38:42;20.40;99.90
11532;DHT22;5822;51.000;5.874;2022-07-29T00:41:11;20.40;99.90
11532;DHT22;5822;51.000;5.874;2022-07-29T00:43:37;20.40;99.90
11532;DHT22;5822;51.000;5.874;2022-07-29T00:46:02;20.30;99.90
11532;DHT22;5822;51.000;5.874;2022-07-29T00:48:28;20.40;99.90
11532;DHT22;5822;51.000;5.874;2022-07-29T00:50:55;20.40;99.90
11532;DHT22;5822;51.000;5.874;2022-07-29T00:53:21;20.30;99.90
11532;DHT22;5822;51.000;5.874;2022-07-29T00:55:47;20.30;99.90
11532;DHT22;5822;51.000;5.874;2022-07-29T00:58:13;20.30;99.90
11532;DHT22;5822;51.000;5.874;2022-07-29T01:00:41;20.40;99.90
11532;DHT22;5822;51.000;5.874;2022-07-29T01:03:07;20.30;99.90
11532;DHT22;5822;51.000;5.874;2022-07-29T01:05:34;20.30;99.90
11532;DHT22;5822;51.000;5.874;2022-07-29T01:08:01;20.30;99.90
11532;DHT22;5822;51.000;5.874;2022-07-29T01:10:28;20.30;99.90
11532;DHT22;5822;51.000;5.874;2022-07-29T01:12:57;20.40;99.90
11532;DHT22;5822;51.000;5.874;2022-07-29T01:15:24;20.30;99.90
11532;DHT22;5822;51.000;5.874;2022-07-29T01:18:03;20.20;99.90
11532;DHT22;5822;51.000;5.874;2022-07-29T01:26:49;20.10;99.90
11532;DHT22;5822;51.000;5.874;2022-07-29T01:29:28;20.10;99.90
11532;DHT22;5822;51.000;5.874;2022-07-29T01:32:18;20.10;99.90
11532;DHT22;5822;51.000;5.874;2022-07-29T01:35:05;20.00;99.90
11532;DHT22;5822;51.000;5.874;2022-07-29T01:37:51;20.00;99.90
11532;DHT22;5822;51.000;5.874;2022-07-29T01:40:24;19.80;99.90
11532;DHT22;5822;51.000;5.874;2022-07-29T01:42:54;19.90;99.90
11532;DHT22;5822;51.000;5.874;2022-07-29T01:45:26;19.80;99.90
11532;DHT22;5822;51.000;5.874;2022-07-29T01:50:50;19.80;99.90
11532;DHT22;5822;51.000;5.874;2022-07-29T01:53:25;19.70;99.90
11532;DHT22;5822;51.000;5.874;2022-07-29T01:55:53;19.70;99.90
11532;DHT22;5822;51.000;5.874;2022-07-29T01:58:20;19.60;99.90
11532;DHT22;5822;51.000;5.874;2022-07-29T02:00:47;19.70;99.90
11532;DHT22;5822;51.000;5.874;2022-07-29T02:03:14;19.80;99.90
11532;DHT22;5822;51.000;5.874;2022-07-29T02:05:44;19.80;99.90
11532;DHT22;5822;51.000;5.874;2022-07-29T02:08:11;19.80;99.90
11532;DHT22;5822;51.000;5.874;2022-07-29T02:10:38;19.80;99.90
11532;DHT22;5822;51.000;5.874;2022-07-29T02:13:06;19.80;99.90
11532;DHT22;5822;51.000;5.874;2022-07-29T02:15:34;19.80;99.90
11532;DHT22;5822;51.000;5.874;2022-07-29T02:18:19;19.70;99.90
11532;DHT22;5822;51.000;5.874;2022-07-29T02:20:49;19.80;99.90
11532;DHT22;5822;51.000;5.874;2022-07-29T02:23:18;19.80;99.90
11532;DHT22;5822;51.000;5.874;2022-07-29T02:25:45;19.90;99.90
11532;DHT22;5822;51.000;5.874;2022-07-29T02:28:13;19.90;99.90
11532;DHT22;5822;51.000;5.874;2022-07-29T02:30:42;19.80;99.90
11532;DHT22;5822;51.000;5.874;2022-07-29T02:33:10;19.90;99.90
11532;DHT22;5822;51.000;5.874;2022-07-29T02:35:38;19.80;99.90
11532;DHT22;5822;51.000;5.874;2022-07-29T02:38:05;19.80;99.90
11532;DHT22;5822;51.000;5.874;2022-07-29T02:40:50;19.80;99.90
11532;DHT22;5822;51.000;5.874;2022-07-29T02:43:17;19.90;99.90
11532;DHT22;5822;51.000;5.874;2022-07-29T02:45:45;19.80;99.90
11532;DHT22;5822;51.000;5.874;2022-07-29T02:48:15;19.80;99.90
11532;DHT22;5822;51.000;5.874;2022-07-29T02:50:48;19.60;99.90
11532;DHT22;5822;51.000;5.874;2022-07-29T02:53:18;19.70;99.90
11532;DHT22;5822;51.000;5.874;2022-07-29T02:56:06;19.70;99.90
11532;DHT22;5822;51.000;5.874;2022-07-29T02:58:34;19.80;99.90
11532;DHT22;5822;51.000;5.874;2022-07-29T03:01:04;19.80;99.90
11532;DHT22;5822;51.000;5.874;2022-07-29T03:03:34;19.70;99.90
11532;DHT22;5822;51.000;5.874;2022-07-29T03:06:01;19.70;99.90
11532;DHT22;5822;51.000;5.874;2022-07-29T03:08:31;19.80;99.90
11532;DHT22;5822;51.000;5.874;2022-07-29T03:10:57;19.70;99.90
11532;DHT22;5822;51.000;5.874;2022-07-29T03:13:24;19.80;99.90
11532;DHT22;5822;51.000;5.874;2022-07-29T03:15:50;19.70;99.90
11532;DHT22;5822;51.000;5.874;2022-07-29T03:18:16;19.60;99.90
11532;DHT22;5822;51.000;5.874;2022-07-29T03:20:42;19.60;99.90
11532;DHT22;5822;51.000;5.874;2022-07-29T03:23:08;19.50;99.90
11532;DHT22;5822;51.000;5.874;2022-07-29T03:25:34;19.50;99.90
11532;DHT22;5822;51.000;5.874;2022-07-29T03:28:00;19.50;99.90
11532;DHT22;5822;51.000;5.874;2022-07-29T03:30:26;19.60;99.90
11532;DHT22;5822;51.000;5.874;2022-07-29T03:32:52;19.60;99.90
11532;DHT22;5822;51.000;5.874;2022-07-29T03:35:18;19.70;99.90
11532;DHT22;5822;51.000;5.874;2022-07-29T03:37:48;19.70;99.90
11532;DHT22;5822;51.000;5.874;2022-07-29T03:40:22;19.60;99.90
11532;DHT22;5822;51.000;5.874;2022-07-29T03:42:49;19.60;99.90
11532;DHT22;5822;51.000;5.874;2022-07-29T03:45:18;19.70;99.90
11532;DHT22;5822;51.000;5.874;2022-07-29T03:47:54;19.70;99.90
11532;DHT22;5822;51.000;5.874;2022-07-29T03:50:22;19.70;99.90
11532;DHT22;5822;51.000;5.874;2022-07-29T03:52:48;19.70;99.90
11532;DHT22;5822;51.000;5.874;2022-07-29T03:55:14;19.60;99.90
11532;DHT22;5822;51.000;5.874;2022-07-29T03:57:40;19.50;99.90
11532;DHT22;5822;51.000;5.874;2022-07-29T04:00:07;19.40;99.90
11532;DHT22;5822;51.000;5.874;2022-07-29T04:02:33;19.20;99.90
11532;DHT22;5822;51.000;5.874;2022-07-29T04:04:59;19.20;99.90
11532;DHT22;5822;51.000;5.874;2022-07-29T04:07:25;19.20;99.90
11532;DHT22;5822;51.000;5.874;2022-07-29T04:09:50;19.40;99.90
11532;DHT22;5822;51.000;5.874;2022-07-29T04:12:16;19.50;99.90
11532;DHT22;5822;51.000;5.874;2022-07-29T04:14:41;19.60;99.90
11532;DHT22;5822;51.000;5.874;2022-07-29T04:17:07;19.60;99.90
11532;DHT22;5822;51.000;5.874;2022-07-29T04:19:33;19.50;99.90
11532;DHT22;5822;51.000;5.874;2022-07-29T04:22:00;19.60;99.90
11532;DHT22;5822;51.000;5.874;2022-07-29T04:24:26;19.60;99.90
11532;DHT22;5822;51.000;5.874;2022-07-29T04:26:52;19.60;99.90
11532;DHT22;5822;51.000;5.874;2022-07-29T04:29:18;19.50;99.90
11532;DHT22;5822;51.000;5.874;2022-07-29T04:31:43;19.40;99.90
11532;DHT22;5822;51.000;5.874;2022-07-29T04:34:10;19.30;99.90
11532;DHT22;5822;51.000;5.874;2022-07-29T04:36:35;19.20;99.90
11532;DHT22;5822;51.000;5.874;2022-07-29T04:39:01;19.10;99.90
11532;DHT22;5822;51.000;5.874;2022-07-29T04:41:27;19.10;99.90
11532;DHT22;5822;51.000;5.874;2022-07-29T04:43:53;19.30;99.90
11532;DHT22;5822;51.000;5.874;2022-07-29T04:46:19;19.40;99.90
11532;DHT22;5822;51.000;5.874;2022-07-29T04:48:45;19.50;99.90
11532;DHT22;5822;51.000;5.874;2022-07-29T04:51:12;19.60;99.90
11532;DHT22;5822;51.000;5.874;2022-07-29T04:53:37;19.50;99.90
11532;DHT22;5822;51.000;5.874;2022-07-29T04:56:03;19.40;99.90
11532;DHT22;5822;51.000;5.874;2022-07-29T04:58:29;19.40;99.90
11532;DHT22;5822;51.000;5.874;2022-07-29T05:00:54;19.50;99.90
11532;DHT22;5822;51.000;5.874;2022-07-29T05:03:20;19.60;99.90
11532;DHT22;5822;51.000;5.874;2022-07-29T05:05:45;19.50;99.90
11532;DHT22;5822;51.000;5.874;2022-07-29T05:08:11;19.30;99.90
11532;DHT22;5822;51.000;5.874;2022-07-29T05:10:37;19.30;99.90
11532;DHT22;5822;51.000;5.874;2022-07-29T05:13:06;19.20;99.90
11532;DHT22;5822;51.000;5.874;2022-07-29T05:15:33;19.10;99.90
11532;DHT22;5822;51.000;5.874;2022-07-29T05:18:00;19.30;99.90
11532;DHT22;5822;51.000;5.874;2022-07-29T05:20:26;19.40;99.90
11532;DHT22;5822;51.000;5.874;2022-07-29T05:22:54;19.50;99.90
11532;DHT22;5822;51.000;5.874;2022-07-29T05:25:20;19.40;99.90
11532;DHT22;5822;51.000;5.874;2022-07-29T05:27:46;19.40;99.90
11532;DHT22;5822;51.000;5.874;2022-07-29T05:30:12;19.40;99.90
11532;DHT22;5822;51.000;5.874;2022-07-29T05:32:38;19.20;99.90
11532;DHT22;5822;51.000;5.874;2022-07-29T05:35:03;19.20;99.90
11532;DHT22;5822;51.000;5.874;2022-07-29T05:37:29;19.20;99.90
11532;DHT22;5822;51.000;5.874;2022-07-29T05:39:54;19.40;99.90
11532;DHT22;5822;51.000;5.874;2022-07-29T05:42:21;19.50;99.90
11532;DHT22;5822;51.000;5.874;2022-07-29T05:44:46;19.50;99.90
11532;DHT22;5822;51.000;5.874;2022-07-29T05:47:12;19.60;99.90
11532;DHT22;5822;51.000;5.874;2022-07-29T05:49:38;19.70;99.90
11532;DHT22;5822;51.000;5.874;2022-07-29T05:52:04;19.70;99.90
11532;DHT22;5822;51.000;5.874;2022-07-29T05:54:30;19.70;99.90
11532;DHT22;5822;51.000;5.874;2022-07-29T05:56:56;19.70;99.90
11532;DHT22;5822;51.000;5.874;2022-07-29T05:59:21;19.60;99.90
11532;DHT22;5822;51.000;5.874;2022-07-29T06:01:47;19.40;99.90
11532;DHT22;5822;51.000;5.874;2022-07-29T06:04:12;19.30;99.90
11532;DHT22;5822;51.000;5.874;2022-07-29T06:06:38;19.40;99.90
11532;DHT22;5822;51.000;5.874;2022-07-29T06:09:03;19.40;99.90
11532;DHT22;5822;51.000;5.874;2022-07-29T06:11:29;19.40;99.90
11532;DHT22;5822;51.000;5.874;2022-07-29T06:13:55;19.20;99.90
11532;DHT22;5822;51.000;5.874;2022-07-29T06:16:21;19.30;99.90
11532;DHT22;5822;51.000;5.874;2022-07-29T06:18:46;19.30;99.90
11532;DHT22;5822;51.000;5.874;2022-07-29T06:21:12;19.50;99.90
11532;DHT22;5822;51.000;5.874;2022-07-29T06:23:39;19.60;99.90
11532;DHT22;5822;51.000;5.874;2022-07-29T06:26:05;19.70;99.90
11532;DHT22;5822;51.000;5.874;2022-07-29T06:28:31;19.70;99.90
11532;DHT22;5822;51.000;5.874;2022-07-29T06:30:57;19.70;99.90
11532;DHT22;5822;51.000;5.874;2022-07-29T06:33:23;19.70;99.90
11532;DHT22;5822;51.000;5.874;2022-07-29T06:35:49;19.60;99.90
11532;DHT22;5822;51.000;5.874;2022-07-29T06:38:14;19.60;99.90
11532;DHT22;5822;51.000;5.874;2022-07-29T06:40:44;19.70;99.90
11532;DHT22;5822;51.000;5.874;2022-07-29T06:43:36;19.80;99.90
11532;DHT22;5822;51.000;5.874;2022-07-29T06:46:08;19.80;99.90
11532;DHT22;5822;51.000;5.874;2022-07-29T06:48:35;19.80;99.90
11532;DHT22;5822;51.000;5.874;2022-07-29T06:51:05;19.90;99.90
11532;DHT22;5822;51.000;5.874;2022-07-29T06:53:31;19.90;99.90
11532;DHT22;5822;51.000;5.874;2022-07-29T06:55:58;19.80;99.90
11532;DHT22;5822;51.000;5.874;2022-07-29T06:58:26;19.80;99.90
11532;DHT22;5822;51.000;5.874;2022-07-29T07:00:51;19.70;99.90
11532;DHT22;5822;51.000;5.874;2022-07-29T07:03:17;19.60;99.90
11532;DHT22;5822;51.000;5.874;2022-07-29T07:05:43;19.50;99.90
11532;DHT22;5822;51.000;5.874;2022-07-29T07:08:10;19.40;99.90
11532;DHT22;5822;51.000;5.874;2022-07-29T07:10:36;19.50;99.90
11532;DHT22;5822;51.000;5.874;2022-07-29T07:13:02;19.30;99.90
11532;DHT22;5822;51.000;5.874;2022-07-29T07:15:28;19.30;99.90
11532;DHT22;5822;51.000;5.874;2022-07-29T07:17:54;19.50;99.90
11532;DHT22;5822;51.000;5.874;2022-07-29T07:20:20;19.60;99.90
11532;DHT22;5822;51.000;5.874;2022-07-29T07:22:45;19.70;99.90
11532;DHT22;5822;51.000;5.874;2022-07-29T07:25:11;19.70;99.90
11532;DHT22;5822;51.000;5.874;2022-07-29T07:27:38;19.70;99.90
11532;DHT22;5822;51.000;5.874;2022-07-29T07:30:05;19.70;99.90
11532;DHT22;5822;51.000;5.874;2022-07-29T07:32:34;19.70;99.90
11532;DHT22;5822;51.000;5.874;2022-07-29T07:35:00;19.70;99.90
11532;DHT22;5822;51.000;5.874;2022-07-29T07:37:26;19.80;99.90
11532;DHT22;5822;51.000;5.874;2022-07-29T07:39:52;19.80;99.90
11532;DHT22;5822;51.000;5.874;2022-07-29T07:42:18;19.80;99.90
11532;DHT22;5822;51.000;5.874;2022-07-29T07:44:44;19.80;99.90
11532;DHT22;5822;51.000;5.874;2022-07-29T07:47:14;19.80;99.90
11532;DHT22;5822;51.000;5.874;2022-07-29T07:49:40;19.80;99.90
11532;DHT22;5822;51.000;5.874;2022-07-29T07:52:05;19.80;99.90
11532;DHT22;5822;51.000;5.874;2022-07-29T07:54:31;19.70;99.90
11532;DHT22;5822;51.000;5.874;2022-07-29T07:56:57;19.80;99.90
11532;DHT22;5822;51.000;5.874;2022-07-29T07:59:22;19.80;99.90
11532;DHT22;5822;51.000;5.874;2022-07-29T08:01:48;19.90;99.90
11532;DHT22;5822;51.000;5.874;2022-07-29T08:04:14;19.90;99.90
11532;DHT22;5822;51.000;5.874;2022-07-29T08:06:40;20.00;99.90
11532;DHT22;5822;51.000;5.874;2022-07-29T08:09:05;20.10;99.90
11532;DHT22;5822;51.000;5.874;2022-07-29T08:11:31;20.10;99.90
11532;DHT22;5822;51.000;5.874;2022-07-29T08:13:57;20.10;99.90
11532;DHT22;5822;51.000;5.874;2022-07-29T08:16:23;20.10;99.90
11532;DHT22;5822;51.000;5.874;2022-07-29T08:18:51;20.20;99.90
11532;DHT22;5822;51.000;5.874;2022-07-29T08:21:17;20.10;99.90
11532;DHT22;5822;51.000;5.874;2022-07-29T08:23:44;20.00;99.90
11532;DHT22;5822;51.000;5.874;2022-07-29T08:26:12;20.10;99.90
11532;DHT22;5822;51.000;5.874;2022-07-29T08:28:39;20.00;99.90
11532;DHT22;5822;51.000;5.874;2022-07-29T08:31:05;20.10;99.90
11532;DHT22;5822;51.000;5.874;2022-07-29T08:33:32;20.10;99.90
11532;DHT22;5822;51.000;5.874;2022-07-29T08:35:58;20.10;99.90
11532;DHT22;5822;51.000;5.874;2022-07-29T08:38:24;20.10;99.90
11532;DHT22;5822;51.000;5.874;2022-07-29T08:40:52;20.00;99.90
11532;DHT22;5822;51.000;5.874;2022-07-29T08:43:18;20.10;99.90
11532;DHT22;5822;51.000;5.874;2022-07-29T08:45:49;20.10;99.90
11532;DHT22;5822;51.000;5.874;2022-07-29T08:48:21;20.20;99.90
11532;DHT22;5822;51.000;5.874;2022-07-29T08:50:49;20.20;99.90
11532;DHT22;5822;51.000;5.874;2022-07-29T08:53:16;20.20;99.90
11532;DHT22;5822;51.000;5.874;2022-07-29T08:55:44;20.30;99.90
11532;DHT22;5822;51.000;5.874;2022-07-29T08:58:10;20.30;99.90
11532;DHT22;5822;51.000;5.874;2022-07-29T09:00:39;20.30;99.90
11532;DHT22;5822;51.000;5.874;2022-07-29T09:03:08;20.20;99.90
11532;DHT22;5822;51.000;5.874;2022-07-29T09:05:34;20.10;99.90
11532;DHT22;5822;51.000;5.874;2022-07-29T09:08:01;20.20;99.90
11532;DHT22;5822;51.000;5.874;2022-07-29T09:10:27;20.30;99.90
11532;DHT22;5822;51.000;5.874;2022-07-29T09:12:54;20.30;99.90
11532;DHT22;5822;51.000;5.874;2022-07-29T09:15:20;20.30;99.90
11532;DHT22;5822;51.000;5.874;2022-07-29T09:17:48;20.40;99.90
11532;DHT22;5822;51.000;5.874;2022-07-29T09:20:15;20.40;99.90
11532;DHT22;5822;51.000;5.874;2022-07-29T09:22:41;20.50;99.90
11532;DHT22;5822;51.000;5.874;2022-07-29T09:25:08;20.50;99.90
11532;DHT22;5822;51.000;5.874;2022-07-29T09:27:34;20.50;99.90
11532;DHT22;5822;51.000;5.874;2022-07-29T09:32:26;20.50;99.90
11532;DHT22;5822;51.000;5.874;2022-07-29T09:35:16;20.50;99.90
11532;DHT22;5822;51.000;5.874;2022-07-29T09:37:43;20.50;99.90
11532;DHT22;5822;51.000;5.874;2022-07-29T09:40:16;20.50;99.90
11532;DHT22;5822;51.000;5.874;2022-07-29T09:42:43;20.50;99.90
11532;DHT22;5822;51.000;5.874;2022-07-29T09:45:10;20.50;99.90
11532;DHT22;5822;51.000;5.874;2022-07-29T09:47:45;20.50;99.90
11532;DHT22;5822;51.000;5.874;2022-07-29T09:50:11;20.50;99.90
11532;DHT22;5822;51.000;5.874;2022-07-29T09:52:50;20.50;99.90
11532;DHT22;5822;51.000;5.874;2022-07-29T09:55:16;20.50;99.90
11532;DHT22;5822;51.000;5.874;2022-07-29T09:57:43;20.50;99.90
11532;DHT22;5822;51.000;5.874;2022-07-29T10:00:11;20.50;99.90
11532;DHT22;5822;51.000;5.874;2022-07-29T10:02:40;20.60;99.90
11532;DHT22;5822;51.000;5.874;2022-07-29T10:07:47;20.60;99.90
11532;DHT22;5822;51.000;5.874;2022-07-29T10:12:59;20.70;99.90
11532;DHT22;5822;51.000;5.874;2022-07-29T10:15:29;20.70;99.90
11532;DHT22;5822;51.000;5.874;2022-07-29T10:17:58;20.70;99.90
11532;DHT22;5822;51.000;5.874;2022-07-29T10:20:24;20.70;99.90
11532;DHT22;5822;51.000;5.874;2022-07-29T10:22:51;20.70;99.90
11532;DHT22;5822;51.000;5.874;2022-07-29T10:25:17;20.60;99.90
11532;DHT22;5822;51.000;5.874;2022-07-29T10:27:45;20.60;99.90
11532;DHT22;5822;51.000;5.874;2022-07-29T10:30:13;20.70;99.90
11532;DHT22;5822;51.000;5.874;2022-07-29T10:38:34;20.80;99.90
11532;DHT22;5822;51.000;5.874;2022-07-29T10:44:20;20.80;99.90
11532;DHT22;5822;51.000;5.874;2022-07-29T10:46:46;20.80;99.90
11532;DHT22;5822;51.000;5.874;2022-07-29T10:49:17;20.80;99.90
11532;DHT22;5822;51.000;5.874;2022-07-29T10:52:04;20.80;99.90
11532;DHT22;5822;51.000;5.874;2022-07-29T10:59:45;20.80;99.90
11532;DHT22;5822;51.000;5.874;2022-07-29T11:05:03;20.80;99.90
11532;DHT22;5822;51.000;5.874;2022-07-29T11:07:29;20.80;99.90
11532;DHT22;5822;51.000;5.874;2022-07-29T11:23:17;20.90;99.90
11532;DHT22;5822;51.000;5.874;2022-07-29T11:25:42;20.90;99.90
11532;DHT22;5822;51.000;5.874;2022-07-29T11:28:13;20.90;99.90
11532;DHT22;5822;51.000;5.874;2022-07-29T11:30:52;20.90;99.90
11532;DHT22;5822;51.000;5.874;2022-07-29T11:33:32;20.90;99.90
11532;DHT22;5822;51.000;5.874;2022-07-29T11:36:11;20.90;99.90
11532;DHT22;5822;51.000;5.874;2022-07-29T11:38:37;20.90;99.90
11532;DHT22;5822;51.000;5.874;2022-07-29T11:41:28;20.90;99.90
11532;DHT22;5822;51.000;5.874;2022-07-29T11:43:56;20.90;99.90
11532;DHT22;5822;51.000;5.874;2022-07-29T11:46:49;20.90;99.90
11532;DHT22;5822;51.000;5.874;2022-07-29T11:49:22;20.90;99.90
11532;DHT22;5822;51.000;5.874;2022-07-29T11:51:55;20.90;99.90
11532;DHT22;5822;51.000;5.874;2022-07-29T11:54:26;20.90;99.90
11532;DHT22;5822;51.000;5.874;2022-07-29T11:56:52;20.90;99.90
11532;DHT22;5822;51.000;5.874;2022-07-29T11:59:19;21.00;99.90
11532;DHT22;5822;51.000;5.874;2022-07-29T12:01:54;21.00;99.90
11532;DHT22;5822;51.000;5.874;2022-07-29T12:04:20;21.00;99.90
11532;DHT22;5822;51.000;5.874;2022-07-29T12:06:50;21.00;99.90
11532;DHT22;5822;51.000;5.874;2022-07-29T12:09:17;21.00;99.90
11532;DHT22;5822;51.000;5.874;2022-07-29T12:11:43;21.00;99.90
11532;DHT22;5822;51.000;5.874;2022-07-29T12:14:08;21.00;99.90
11532;DHT22;5822;51.000;5.874;2022-07-29T12:16:37;21.10;99.90
11532;DHT22;5822;51.000;5.874;2022-07-29T12:19:03;21.10;99.90
11532;DHT22;5822;51.000;5.874;2022-07-29T12:21:46;21.10;99.90
11532;DHT22;5822;51.000;5.874;2022-07-29T12:24:12;21.10;99.90
11532;DHT22;5822;51.000;5.874;2022-07-29T12:26:53;21.10;99.90
11532;DHT22;5822;51.000;5.874;2022-07-29T12:29:19;21.10;99.90
11532;DHT22;5822;51.000;5.874;2022-07-29T12:31:45;21.20;99.90
11532;DHT22;5822;51.000;5.874;2022-07-29T12:34:13;21.20;99.90
11532;DHT22;5822;51.000;5.874;2022-07-29T12:36:41;21.20;99.90
11532;DHT22;5822;51.000;5.874;2022-07-29T12:39:08;21.30;99.90
11532;DHT22;5822;51.000;5.874;2022-07-29T12:41:34;21.30;99.90
11532;DHT22;5822;51.000;5.874;2022-07-29T12:44:00;21.40;99.90
11532;DHT22;5822;51.000;5.874;2022-07-29T12:46:26;21.40;99.90
11532;DHT22;5822;51.000;5.874;2022-07-29T12:48:53;21.40;99.90
11532;DHT22;5822;51.000;5.874;2022-07-29T12:51:38;21.30;99.90
11532;DHT22;5822;51.000;5.874;2022-07-29T12:54:06;21.40;99.90
11532;DHT22;5822;51.000;5.874;2022-07-29T12:56:33;21.40;99.90
11532;DHT22;5822;51.000;5.874;2022-07-29T12:58:59;21.40;99.90
11532;DHT22;5822;51.000;5.874;2022-07-29T13:01:36;21.40;99.90
11532;DHT22;5822;51.000;5.874;2022-07-29T13:04:02;21.40;99.90
11532;DHT22;5822;51.000;5.874;2022-07-29T13:06:42;21.40;99.90
11532;DHT22;5822;51.000;5.874;2022-07-29T13:11:41;21.50;99.90
11532;DHT22;5822;51.000;5.874;2022-07-29T13:14:09;21.50;99.90
11532;DHT22;5822;51.000;5.874;2022-07-29T13:16:35;21.50;99.90
11532;DHT22;5822;51.000;5.874;2022-07-29T13:19:05;21.70;99.90
11532;DHT22;5822;51.000;5.874;2022-07-29T13:21:31;22.10;99.90
11532;DHT22;5822;51.000;5.874;2022-07-29T13:23:57;22.80;99.90
11532;DHT22;5822;51.000;5.874;2022-07-29T13:26:22;23.30;99.90
11532;DHT22;5822;51.000;5.874;2022-07-29T13:28:48;23.50;99.90
11532;DHT22;5822;51.000;5.874;2022-07-29T13:31:13;23.70;99.90
11532;DHT22;5822;51.000;5.874;2022-07-29T13:33:39;23.80;99.90
11532;DHT22;5822;51.000;5.874;2022-07-29T13:36:05;23.90;99.90
11532;DHT22;5822;51.000;5.874;2022-07-29T13:38:30;23.80;99.90
11532;DHT22;5822;51.000;5.874;2022-07-29T13:40:56;23.60;99.90
11532;DHT22;5822;51.000;5.874;2022-07-29T13:43:22;23.50;99.90
11532;DHT22;5822;51.000;5.874;2022-07-29T13:45:47;23.60;99.90
11532;DHT22;5822;51.000;5.874;2022-07-29T13:48:13;23.70;99.90
11532;DHT22;5822;51.000;5.874;2022-07-29T13:50:38;23.80;99.90
11532;DHT22;5822;51.000;5.874;2022-07-29T13:53:04;23.80;99.90
11532;DHT22;5822;51.000;5.874;2022-07-29T13:55:29;23.90;99.90
11532;DHT22;5822;51.000;5.874;2022-07-29T13:57:55;24.00;99.90
11532;DHT22;5822;51.000;5.874;2022-07-29T14:00:21;24.10;99.90
11532;DHT22;5822;51.000;5.874;2022-07-29T14:02:47;24.00;99.90
11532;DHT22;5822;51.000;5.874;2022-07-29T14:05:12;23.80;99.90
11532;DHT22;5822;51.000;5.874;2022-07-29T14:07:38;23.60;99.90
11532;DHT22;5822;51.000;5.874;2022-07-29T14:10:04;23.60;99.90
11532;DHT22;5822;51.000;5.874;2022-07-29T14:12:30;23.60;99.90
11532;DHT22;5822;51.000;5.874;2022-07-29T14:14:56;23.50;99.90
11532;DHT22;5822;51.000;5.874;2022-07-29T14:17:22;23.60;99.90
11532;DHT22;5822;51.000;5.874;2022-07-29T14:19:48;23.60;99.90
11532;DHT22;5822;51.000;5.874;2022-07-29T14:22:13;23.70;99.90
11532;DHT22;5822;51.000;5.874;2022-07-29T14:24:39;23.50;99.90
11532;DHT22;5822;51.000;5.874;2022-07-29T14:27:06;23.50;99.90
11532;DHT22;5822;51.000;5.874;2022-07-29T14:29:31;23.50;99.90
11532;DHT22;5822;51.000;5.874;2022-07-29T14:31:57;23.50;99.90
11532;DHT22;5822;51.000;5.874;2022-07-29T14:34:23;23.50;99.90
11532;DHT22;5822;51.000;5.874;2022-07-29T14:36:49;23.50;99.90
11532;DHT22;5822;51.000;5.874;2022-07-29T14:39:14;23.50;99.90
11532;DHT22;5822;51.000;5.874;2022-07-29T14:41:42;23.50;99.90
11532;DHT22;5822;51.000;5.874;2022-07-29T14:44:08;23.50;99.90
11532;DHT22;5822;51.000;5.874;2022-07-29T14:46:34;23.50;99.90
11532;DHT22;5822;51.000;5.874;2022-07-29T14:48:59;23.70;99.90
11532;DHT22;5822;51.000;5.874;2022-07-29T14:51:25;23.90;99.90
11532;DHT22;5822;51.000;5.874;2022-07-29T14:53:51;23.90;99.90
11532;DHT22;5822;51.000;5.874;2022-07-29T14:56:17;24.00;99.90
11532;DHT22;5822;51.000;5.874;2022-07-29T14:58:42;24.00;99.90
11532;DHT22;5822;51.000;5.874;2022-07-29T15:01:08;24.00;99.90
11532;DHT22;5822;51.000;5.874;2022-07-29T15:03:34;24.00;99.90
11532;DHT22;5822;51.000;5.874;2022-07-29T15:05:59;23.90;99.90
11532;DHT22;5822;51.000;5.874;2022-07-29T15:08:25;23.80;99.90
11532;DHT22;5822;51.000;5.874;2022-07-29T15:10:53;23.70;99.90
11532;DHT22;5822;51.000;5.874;2022-07-29T15:13:18;23.80;99.90
11532;DHT22;5822;51.000;5.874;2022-07-29T15:15:44;23.80;99.90
11532;DHT22;5822;51.000;5.874;2022-07-29T15:18:10;23.60;99.90
11532;DHT22;5822;51.000;5.874;2022-07-29T15:20:36;23.60;99.90
11532;DHT22;5822;51.000;5.874;2022-07-29T15:23:02;23.50;99.90
11532;DHT22;5822;51.000;5.874;2022-07-29T15:25:27;23.50;99.90
11532;DHT22;5822;51.000;5.874;2022-07-29T15:27:53;23.60;99.90
11532;DHT22;5822;51.000;5.874;2022-07-29T15:30:19;23.50;99.90
11532;DHT22;5822;51.000;5.874;2022-07-29T15:32:44;23.50;99.90
11532;DHT22;5822;51.000;5.874;2022-07-29T15:35:10;23.50;99.90
11532;DHT22;5822;51.000;5.874;2022-07-29T15:37:37;23.40;99.90
11532;DHT22;5822;51.000;5.874;2022-07-29T15:40:06;23.40;99.90
11532;DHT22;5822;51.000;5.874;2022-07-29T15:42:35;23.50;99.90
11532;DHT22;5822;51.000;5.874;2022-07-29T15:45:01;23.50;99.90
11532;DHT22;5822;51.000;5.874;2022-07-29T15:47:29;23.40;99.90
11532;DHT22;5822;51.000;5.874;2022-07-29T15:49:55;23.40;99.90
11532;DHT22;5822;51.000;5.874;2022-07-29T15:52:21;23.40;99.90
11532;DHT22;5822;51.000;5.874;2022-07-29T15:54:46;23.40;99.90
11532;DHT22;5822;51.000;5.874;2022-07-29T15:57:12;23.40;99.90
11532;DHT22;5822;51.000;5.874;2022-07-29T15:59:38;23.40;99.90
11532;DHT22;5822;51.000;5.874;2022-07-29T16:02:04;23.40;99.90
11532;DHT22;5822;51.000;5.874;2022-07-29T16:04:30;23.30;99.90
11532;DHT22;5822;51.000;5.874;2022-07-29T16:06:59;23.30;99.90
11532;DHT22;5822;51.000;5.874;2022-07-29T16:09:25;23.50;99.90
11532;DHT22;5822;51.000;5.874;2022-07-29T16:11:51;23.60;99.90
11532;DHT22;5822;51.000;5.874;2022-07-29T16:14:18;23.50;99.90
11532;DHT22;5822;51.000;5.874;2022-07-29T16:16:44;23.50;99.90
11532;DHT22;5822;51.000;5.874;2022-07-29T16:19:10;23.50;99.90
11532;DHT22;5822;51.000;5.874;2022-07-29T16:21:36;23.40;99.90
11532;DHT22;5822;51.000;5.874;2022-07-29T16:24:03;23.40;99.90
11532;DHT22;5822;51.000;5.874;2022-07-29T16:26:29;23.40;99.90
11532;DHT22;5822;51.000;5.874;2022-07-29T16:28:54;23.40;99.90
11532;DHT22;5822;51.000;5.874;2022-07-29T16:31:20;23.40;99.90
11532;DHT22;5822;51.000;5.874;2022-07-29T16:33:48;23.30;99.90
11532;DHT22;5822;51.000;5.874;2022-07-29T16:36:14;23.30;99.90
11532;DHT22;5822;51.000;5.874;2022-07-29T16:38:39;23.30;99.90